Time;durP1;ratioP1;P1;durP2;ratioP2;P2;SDS_P1;SDS_P2;PMS_P1;PMS_P2;Temp;Humidity;BMP_temperature;BMP_pressure;BME280_temperature;BME280_humidity;BME280_pressure;Samples;Min_cycle;Max_cycle;Signal;HPM_P1;HPM_P2
2021/12/16 00:06:53;;;;;;;2.90;1.45;;;;;;;8.09;88.52;102613.75;4958363;28;20464;-83
2021/12/16 00:08:23;;;;;;;3.40;1.13;;;;;;;8.11;88.48;102608.78;4953338;28;20070;-84
2021/12/16 00:10:58;;;;;;;5.28;1.35;;;;;;;8.15;88.42;102610.72;4956434;28;20046;-84
2021/12/16 00:32:44;;;;;;;8.52;2.58;;;;;;;8.14;88.45;102620.09;4956791;28;20047;-84
2021/12/16 00:35:11;;;;;;;3.00;1.45;;;;;;;8.15;88.58;102637.47;4947325;28;20035;-84
2021/12/16 00:37:38;;;;;;;6.15;3.25;;;;;;;8.13;88.56;102628.66;4939943;28;20043;-84
2021/12/16 00:40:08;;;;;;;9.07;2.10;;;;;;;8.11;88.40;102628.09;4957622;28;20054;-84
2021/12/16 00:42:48;;;;;;;10.18;2.47;;;;;;;8.11;88.73;102641.88;4956677;28;20316;-84
2021/12/16 00:45:42;;;;;;;8.98;2.17;;;;;;;8.09;88.35;102646.88;4955511;28;20051;-84
2021/12/16 00:48:36;;;;;;;6.68;1.98;;;;;;;8.05;88.32;102645.78;4948337;28;20055;-84
2021/12/16 00:56:14;;;;;;;5.28;2.60;;;;;;;7.87;88.47;102658.25;4948943;29;20038;-84
2021/12/16 00:58:50;;;;;;;5.75;2.80;;;;;;;7.83;88.53;102658.00;4939720;29;20094;-84
2021/12/16 01:07:11;;;;;;;5.97;2.63;;;;;;;7.80;88.67;102655.81;4961064;28;20109;-84
2021/12/16 01:34:32;;;;;;;5.82;2.38;;;;;;;7.74;89.42;102670.69;4951188;28;20043;-84
2021/12/16 01:50:09;;;;;;;8.50;5.63;;;;;;;7.71;89.46;102659.41;4961829;28;20046;-84
2021/12/16 01:55:16;;;;;;;8.57;3.75;;;;;;;7.66;89.44;102659.41;4958974;28;20042;-84
2021/12/16 01:57:49;;;;;;;7.82;3.65;;;;;;;7.63;89.46;102663.56;4958578;28;20050;-84
2021/12/16 02:00:44;;;;;;;5.78;3.80;;;;;;;7.58;89.38;102659.97;4949581;28;20039;-84
2021/12/16 02:03:12;;;;;;;7.37;3.67;;;;;;;7.51;89.29;102664.97;4942247;28;20047;-85
2021/12/16 02:08:43;;;;;;;10.80;4.25;;;;;;;7.34;89.29;102673.50;4907789;29;20044;-84
2021/12/16 02:11:23;;;;;;;8.23;3.78;;;;;;;7.31;89.33;102676.81;4948257;28;21209;-84
2021/12/16 02:36:31;;;;;;;8.10;4.10;;;;;;;6.74;88.93;102675.16;4935617;28;20043;-85
2021/12/16 02:39:03;;;;;;;10.82;4.72;;;;;;;6.75;89.18;102687.00;4950265;28;20054;-84
2021/12/16 02:41:31;;;;;;;14.65;5.60;;;;;;;6.78;89.08;102699.38;4957055;28;20050;-84
2021/12/16 02:49:52;;;;;;;13.10;6.40;;;;;;;6.71;89.06;102705.97;4957149;28;20555;-84
2021/12/16 02:52:22;;;;;;;11.35;5.38;;;;;;;6.71;89.15;102705.97;4941470;28;20136;-84
2021/12/16 02:54:49;;;;;;;10.73;5.80;;;;;;;6.69;89.29;102708.16;4940936;28;20051;-84
2021/12/16 02:57:17;;;;;;;10.15;5.65;;;;;;;6.66;89.42;102707.88;4941290;28;20122;-84
2021/12/16 02:59:45;;;;;;;8.32;5.10;;;;;;;6.64;89.37;102712.84;4942473;28;20058;-84
2021/12/16 03:02:16;;;;;;;12.55;5.65;;;;;;;6.61;89.57;102714.19;4944072;28;20052;-83
2021/12/16 03:04:46;;;;;;;12.23;6.82;;;;;;;6.62;89.54;102704.81;4913528;29;20432;-84
2021/12/16 03:07:15;;;;;;;12.10;5.28;;;;;;;6.63;89.61;102706.50;4939405;29;20035;-84
2021/12/16 03:12:48;;;;;;;11.45;5.75;;;;;;;6.53;89.81;102702.88;4922888;29;20055;-84
2021/12/16 03:18:09;;;;;;;12.07;5.50;;;;;;;6.50;89.38;102715.25;4939139;29;20039;-84
2021/12/16 03:20:54;;;;;;;10.40;5.10;;;;;;;6.49;89.38;102712.75;4922514;29;20043;-85
2021/12/16 03:34:31;;;;;;;13.45;5.57;;;;;;;6.32;89.14;102717.66;4924779;28;20078;-84
2021/12/16 03:37:38;;;;;;;10.32;5.25;;;;;;;6.29;89.09;102724.53;4938088;29;20047;-84
2021/12/16 03:40:05;;;;;;;10.80;5.22;;;;;;;6.24;89.15;102721.75;4937037;29;20048;-84
2021/12/16 03:42:52;;;;;;;13.38;5.53;;;;;;;6.22;89.06;102723.13;4937991;29;20046;-84
2021/12/16 03:48:46;;;;;;;12.18;6.65;;;;;;;6.21;89.14;102733.28;4938308;29;20055;-84
2021/12/16 03:51:16;;;;;;;12.45;7.10;;;;;;;6.27;89.57;102726.72;4912053;29;20050;-84
2021/12/16 03:53:46;;;;;;;9.77;4.90;;;;;;;6.33;89.37;102728.38;4927923;29;20051;-84
2021/12/16 03:56:13;;;;;;;8.55;5.68;;;;;;;6.31;89.62;102727.00;4938183;29;20043;-84
2021/12/16 03:58:40;;;;;;;14.30;5.95;;;;;;;6.31;89.49;102727.84;4928576;29;20047;-84
2021/12/16 04:01:11;;;;;;;10.60;5.57;;;;;;;6.34;89.53;102731.97;4936591;29;20060;-84
2021/12/16 04:03:38;;;;;;;13.70;6.45;;;;;;;6.38;89.74;102728.41;4940734;28;20407;-84
2021/12/16 04:06:06;;;;;;;11.43;6.13;;;;;;;6.41;89.87;102730.63;4925552;28;20089;-84
2021/12/16 04:08:33;;;;;;;10.75;6.15;;;;;;;6.47;90.15;102736.97;4957038;28;20137;-83
2021/12/16 04:11:07;;;;;;;12.15;6.47;;;;;;;6.53;90.19;102742.25;4941390;28;20035;-84
2021/12/16 04:13:41;;;;;;;12.80;6.63;;;;;;;6.54;90.06;102743.88;4939680;28;20043;-83
2021/12/16 04:16:08;;;;;;;15.32;6.22;;;;;;;6.55;90.20;102740.03;4941638;28;20049;-84
2021/12/16 04:18:36;;;;;;;11.93;6.30;;;;;;;6.53;89.78;102742.25;4939980;28;20046;-85
2021/12/16 04:21:07;;;;;;;13.45;6.53;;;;;;;6.49;89.78;102745.78;4940636;28;20117;-84
2021/12/16 04:23:34;;;;;;;11.02;5.68;;;;;;;6.50;90.09;102759.28;4955925;28;20260;-84
2021/12/16 04:26:00;;;;;;;10.95;5.63;;;;;;;6.52;90.30;102762.59;4957504;28;20131;-85
2021/12/16 04:28:30;;;;;;;9.65;5.07;;;;;;;6.55;90.34;102762.06;4950012;28;20043;-84
2021/12/16 04:30:58;;;;;;;10.43;6.00;;;;;;;6.59;90.23;102754.91;4962178;28;20375;-84
2021/12/16 04:33:27;;;;;;;16.52;5.72;;;;;;;6.64;90.52;102759.63;4959849;28;20513;-84
2021/12/16 04:35:54;;;;;;;8.60;4.97;;;;;;;6.68;90.61;102772.56;4961290;28;20037;-84
2021/12/16 04:38:21;;;;;;;9.02;4.85;;;;;;;6.70;90.71;102758.50;4950575;28;20039;-83
2021/12/16 04:40:49;;;;;;;8.68;4.43;;;;;;;6.74;90.89;102760.47;4948591;28;20043;-84
2021/12/16 04:43:21;;;;;;;7.60;4.88;;;;;;;6.77;90.58;102763.78;4959846;28;20422;-84
2021/12/16 04:45:49;;;;;;;8.93;4.95;;;;;;;6.74;90.49;102765.16;4928083;28;20043;-83
2021/12/16 04:48:16;;;;;;;11.02;5.57;;;;;;;6.74;90.38;102765.97;4960557;28;20134;-83
2021/12/16 04:50:43;;;;;;;6.00;3.95;;;;;;;6.75;90.65;102775.88;4950866;28;20125;-84
2021/12/16 04:53:11;;;;;;;8.52;4.53;;;;;;;6.80;90.70;102777.00;4958198;28;20125;-84
2021/12/16 04:55:37;;;;;;;8.75;4.22;;;;;;;6.84;90.92;102772.59;4959404;28;20138;-85
2021/12/16 04:58:04;;;;;;;8.60;3.58;;;;;;;6.85;90.81;102772.34;4959567;28;20067;-84
2021/12/16 05:00:31;;;;;;;7.97;4.30;;;;;;;6.90;90.78;102774.28;4958552;28;20031;-84
2021/12/16 05:02:58;;;;;;;7.88;4.20;;;;;;;6.91;90.88;102778.69;4960273;28;20549;-84
2021/12/16 05:05:25;;;;;;;7.07;4.38;;;;;;;6.91;90.76;102774.00;4942994;28;20047;-83
2021/12/16 05:07:52;;;;;;;10.20;5.32;;;;;;;6.95;90.58;102788.06;4959283;28;20063;-84
2021/12/16 05:10:20;;;;;;;11.52;5.43;;;;;;;6.96;90.90;102784.22;4960911;28;20043;-84
2021/12/16 05:12:56;;;;;;;10.68;4.03;;;;;;;6.97;90.98;102789.44;4959810;28;20071;-84
2021/12/16 05:15:29;;;;;;;8.10;4.68;;;;;;;6.99;90.94;102791.94;4961374;28;20039;-84
2021/12/16 05:17:59;;;;;;;10.30;4.82;;;;;;;7.00;90.97;102796.34;4958767;28;20043;-84
2021/12/16 05:20:30;;;;;;;11.18;5.30;;;;;;;7.02;91.16;102802.38;4945353;28;20131;-84
2021/12/16 05:25:58;;;;;;;9.70;4.22;;;;;;;7.06;91.18;102798.84;4965589;28;20138;-84
2021/12/16 05:28:26;;;;;;;5.38;3.92;;;;;;;7.09;91.23;102812.06;4960188;28;20050;-84
2021/12/16 05:30:54;;;;;;;11.15;4.82;;;;;;;7.12;91.29;102816.22;4950987;28;20372;-84
2021/12/16 05:33:22;;;;;;;7.25;4.15;;;;;;;7.13;91.42;102815.09;4947858;28;20138;-84
2021/12/16 05:35:51;;;;;;;8.40;5.32;;;;;;;7.15;91.07;102821.16;4942189;28;20070;-84
2021/12/16 05:38:19;;;;;;;10.43;4.47;;;;;;;7.17;91.51;102818.97;4959968;28;20039;-84
2021/12/16 05:40:46;;;;;;;10.95;4.75;;;;;;;7.19;91.50;102827.78;4961273;28;20078;-83
2021/12/16 05:43:17;;;;;;;9.00;4.32;;;;;;;7.20;91.51;102822.00;4959629;28;20538;-84
2021/12/16 05:45:45;;;;;;;11.15;4.60;;;;;;;7.23;91.67;102829.72;4949132;28;20917;-84
2021/12/16 05:48:16;;;;;;;9.45;4.75;;;;;;;7.25;91.85;102826.72;4943793;28;20137;-84
2021/12/16 05:50:47;;;;;;;8.90;4.10;;;;;;;7.28;92.00;102826.16;4957015;28;20165;-84
2021/12/16 05:53:14;;;;;;;8.25;4.03;;;;;;;7.30;91.88;102824.78;4957908;28;20053;-83
2021/12/16 05:55:41;;;;;;;15.02;5.32;;;;;;;7.31;91.74;102831.94;4949037;28;20054;-84
2021/12/16 05:58:10;;;;;;;21.73;10.60;;;;;;;7.34;92.02;102825.06;4949072;28;20045;-83
2021/12/16 06:00:41;;;;;;;17.55;8.95;;;;;;;7.37;92.27;102827.28;4940818;28;20051;-84
2021/12/16 06:03:08;;;;;;;24.27;11.95;;;;;;;7.41;92.10;102836.66;4949469;29;20074;-84
2021/12/16 06:05:35;;;;;;;18.17;10.38;;;;;;;7.41;91.99;102836.66;4928897;29;20078;-83
2021/12/16 06:08:03;;;;;;;16.00;7.95;;;;;;;7.41;92.15;102839.41;4904459;29;20044;-84
2021/12/16 06:11:05;;;;;;;12.07;6.53;;;;;;;7.44;92.17;102847.09;4927127;29;20876;-83
2021/12/16 06:13:17;;;;;;;13.75;6.93;;;;;;;7.46;92.18;102844.94;4947786;28;20043;-84
2021/12/16 06:27:04;;;;;;;14.98;7.13;;;;;;;7.49;92.48;102844.38;4930835;29;20058;-85
2021/12/16 06:29:33;;;;;;;12.68;6.72;;;;;;;7.48;92.32;102848.22;4955053;28;20047;-85
2021/12/16 06:32:00;;;;;;;16.55;6.95;;;;;;;7.50;92.53;102857.03;4955037;28;20117;-83
2021/12/16 06:34:27;;;;;;;17.20;7.13;;;;;;;7.51;92.28;102852.38;4930593;29;20047;-83
2021/12/16 06:36:54;;;;;;;11.68;6.97;;;;;;;7.52;92.31;102862.31;4946914;29;20035;-84
2021/12/16 06:39:21;;;;;;;11.57;6.50;;;;;;;7.51;92.47;102858.72;4947261;29;20031;-84
2021/12/16 06:41:48;;;;;;;14.73;7.05;;;;;;;7.51;92.30;102869.75;4948354;29;20103;-84
2021/12/16 06:44:29;;;;;;;16.05;7.68;;;;;;;7.52;92.49;102862.31;4930057;29;20050;-84
2021/12/16 06:47:06;;;;;;;14.90;7.88;;;;;;;7.53;92.48;102872.22;4929795;29;20055;-84
2021/12/16 06:49:35;;;;;;;13.40;6.32;;;;;;;7.54;92.69;102871.97;4961848;28;20145;-84
2021/12/16 06:52:05;;;;;;;11.07;6.00;;;;;;;7.55;92.70;102881.03;4946273;29;20035;-84
2021/12/16 06:54:52;;;;;;;10.50;6.75;;;;;;;7.56;92.37;102878.00;4946534;29;20046;-84
2021/12/16 07:00:06;;;;;;;15.55;6.05;;;;;;;7.59;92.82;102883.00;4946892;29;20481;-85
2021/12/16 07:05:15;;;;;;;9.20;5.03;;;;;;;7.62;92.68;102893.47;4959182;28;20114;-84
2021/12/16 07:07:43;;;;;;;9.75;5.85;;;;;;;7.64;92.67;102890.44;4947398;28;20447;-83
2021/12/16 07:10:12;;;;;;;10.57;5.50;;;;;;;7.64;92.59;102882.16;4937041;28;20050;-84
2021/12/16 07:12:47;;;;;;;14.88;7.70;;;;;;;7.64;92.64;102899.53;4959148;28;20051;-85
2021/12/16 07:15:18;;;;;;;12.23;6.32;;;;;;;7.63;92.83;102897.88;4946407;28;20475;-84
2021/12/16 07:17:48;;;;;;;7.95;6.10;;;;;;;7.64;92.66;102902.28;4938150;29;20487;-84
2021/12/16 07:20:19;;;;;;;7.03;5.82;;;;;;;7.64;92.85;102907.81;4934604;29;20115;-84
2021/12/16 07:22:46;;;;;;;9.48;6.10;;;;;;;7.66;92.75;102916.63;4956346;28;20060;-84
2021/12/16 07:25:13;;;;;;;9.40;6.65;;;;;;;7.68;92.95;102914.41;4948452;28;20122;-84
2021/12/16 07:27:41;;;;;;;12.48;6.72;;;;;;;7.69;92.97;102916.09;4940892;28;20035;-83
2021/12/16 07:30:11;;;;;;;11.48;6.25;;;;;;;7.70;93.10;102915.00;4963523;28;20483;-84
2021/12/16 07:32:38;;;;;;;12.60;6.72;;;;;;;7.72;93.14;102915.53;4973257;28;20391;-83
2021/12/16 07:35:10;;;;;;;13.80;7.22;;;;;;;7.71;92.83;102913.88;4947055;28;20182;-84
2021/12/16 07:37:38;;;;;;;13.95;8.73;;;;;;;7.73;92.85;102919.94;4941480;28;20049;-85
2021/12/16 07:40:08;;;;;;;14.90;8.77;;;;;;;7.73;93.04;102921.88;4957009;28;20130;-84
2021/12/16 07:42:48;;;;;;;11.48;7.38;;;;;;;7.74;92.93;102924.34;4964116;28;20034;-84
2021/12/16 07:45:17;;;;;;;11.85;7.35;;;;;;;7.74;92.94;102913.31;4942904;28;20934;-84
2021/12/16 07:47:56;;;;;;;12.35;7.03;;;;;;;7.75;93.08;102912.25;4938050;28;20507;-89
2021/12/16 07:50:23;;;;;;;16.15;7.40;;;;;;;7.77;93.22;102921.06;4941408;28;20070;-85
2021/12/16 07:52:50;;;;;;;12.73;8.20;;;;;;;7.79;93.11;102931.81;4960931;28;20043;-84
2021/12/16 07:55:19;;;;;;;16.70;6.97;;;;;;;7.79;92.90;102938.16;4952575;28;20482;-84
2021/12/16 07:57:45;;;;;;;17.15;8.52;;;;;;;7.79;93.02;102932.63;4969972;28;20043;-85
2021/12/16 08:00:21;;;;;;;22.75;8.65;;;;;;;7.80;93.10;102934.31;4947155;28;20047;-86
2021/12/16 08:02:48;;;;;;;11.30;7.03;;;;;;;7.81;93.19;102938.69;4945324;28;20057;-85
2021/12/16 08:05:17;;;;;;;11.38;7.00;;;;;;;7.84;93.13;102946.44;4956486;28;20126;-85
2021/12/16 08:07:45;;;;;;;15.57;6.28;;;;;;;7.85;93.11;102950.03;4940303;28;20035;-85
2021/12/16 08:10:15;;;;;;;13.75;6.80;;;;;;;7.84;92.93;102957.47;4961941;28;20050;-84
2021/12/16 08:12:42;;;;;;;15.50;7.80;;;;;;;7.86;93.11;102949.72;4961219;28;20078;-85
2021/12/16 08:15:10;;;;;;;22.77;6.78;;;;;;;7.88;93.14;102955.00;4956710;28;20044;-85
2021/12/16 08:17:37;;;;;;;13.32;5.80;;;;;;;7.90;93.38;102955.53;4958375;28;20043;-85
2021/12/16 08:20:06;;;;;;;13.90;7.60;;;;;;;7.92;93.27;102959.69;4956795;28;20360;-85
2021/12/16 08:22:33;;;;;;;16.30;6.75;;;;;;;7.94;93.38;102968.50;4946861;28;20097;-85
2021/12/16 08:25:00;;;;;;;25.95;8.93;;;;;;;7.94;93.41;102974.00;4940540;28;20422;-84
2021/12/16 08:27:28;;;;;;;11.25;6.07;;;;;;;7.95;93.33;102970.16;4946141;28;20475;-85
2021/12/16 08:29:55;;;;;;;12.18;6.80;;;;;;;7.97;93.48;102973.47;4943172;28;20092;-85
2021/12/16 08:32:23;;;;;;;16.42;8.27;;;;;;;7.98;93.13;102972.38;4948693;28;20069;-85
2021/12/16 08:34:51;;;;;;;13.43;6.28;;;;;;;8.03;93.56;102982.59;4953115;28;20576;-85
2021/12/16 08:37:24;;;;;;;11.98;6.03;;;;;;;8.07;93.51;102993.91;4955826;28;20071;-84
2021/12/16 08:39:51;;;;;;;;;;;;;;;8.06;93.50;102981.22;4924437;28;20142;-85
2021/12/16 08:42:18;;;;;;;9.43;6.05;;;;;;;8.08;93.46;102993.63;4956299;28;19965;-84
2021/12/16 08:44:45;;;;;;;10.32;6.55;;;;;;;8.11;93.59;102986.72;4962457;28;20065;-84
2021/12/16 08:47:15;;;;;;;12.10;5.22;;;;;;;8.14;93.51;102989.78;4955725;28;20049;-84
2021/12/16 08:49:42;;;;;;;10.88;6.50;;;;;;;8.17;93.83;102993.91;4946891;28;20138;-84
2021/12/16 08:52:13;;;;;;;9.65;5.72;;;;;;;8.18;93.64;102995.59;4946390;28;20054;-86
2021/12/16 08:54:40;;;;;;;14.07;6.85;;;;;;;8.21;93.71;103000.53;4953369;28;20117;-84
2021/12/16 08:57:08;;;;;;;8.20;5.18;;;;;;;8.23;93.73;103012.16;4934093;29;20130;-84
2021/12/16 08:59:35;;;;;;;20.75;6.05;;;;;;;8.25;93.63;103004.41;4937450;29;20052;-85
2021/12/16 09:02:07;;;;;;;21.90;8.55;;;;;;;8.28;93.80;103015.78;4948264;28;20431;-85
2021/12/16 09:04:38;;;;;;;9.70;4.90;;;;;;;8.32;93.62;103019.63;4956986;28;20049;-85
2021/12/16 09:07:09;;;;;;;11.23;5.57;;;;;;;8.35;93.59;103018.25;4957903;28;20114;-84
2021/12/16 09:09:37;;;;;;;12.30;4.33;;;;;;;8.39;93.54;103022.13;4952179;28;20035;-87
2021/12/16 09:12:13;;;;;;;10.05;4.43;;;;;;;8.43;93.47;103014.94;4954143;28;20053;-87
2021/12/16 09:14:43;;;;;;;7.15;4.43;;;;;;;8.48;93.54;103023.22;4949426;28;20047;-84
2021/12/16 09:17:14;;;;;;;11.70;4.78;;;;;;;8.53;93.19;103026.81;4954453;28;20102;-84
2021/12/16 09:19:46;;;;;;;10.68;3.78;;;;;;;8.60;92.90;103026.56;4956092;28;20063;-83
2021/12/16 09:22:16;;;;;;;6.07;3.60;;;;;;;8.63;92.81;103037.03;4945443;28;20042;-84
2021/12/16 09:24:44;;;;;;;7.40;4.03;;;;;;;8.67;92.71;103040.91;4942910;28;20761;-84
2021/12/16 09:27:11;;;;;;;6.32;3.58;;;;;;;8.74;92.73;103037.84;4959890;28;20042;-84
2021/12/16 09:29:39;;;;;;;5.13;3.20;;;;;;;8.78;92.65;103038.97;4944622;28;20088;-83
2021/12/16 09:32:07;;;;;;;7.20;3.20;;;;;;;8.81;92.58;103035.66;4961514;28;20458;-86
2021/12/16 09:34:36;;;;;;;6.13;3.38;;;;;;;8.87;92.36;103049.16;4961663;28;20475;-84
2021/12/16 09:37:04;;;;;;;12.45;3.55;;;;;;;8.91;92.35;103049.44;4960475;28;20149;-84
2021/12/16 09:39:32;;;;;;;7.07;3.42;;;;;;;8.96;92.10;103049.44;4958539;28;20137;-84
2021/12/16 09:42:00;;;;;;;3.85;3.05;;;;;;;8.99;92.25;103051.66;4943389;28;20043;-85
2021/12/16 09:44:28;;;;;;;11.18;4.45;;;;;;;9.04;91.88;103046.09;4943371;28;20940;-84
2021/12/16 09:46:58;;;;;;;10.45;3.58;;;;;;;9.08;91.81;103050.78;4960513;28;20050;-84
2021/12/16 09:49:25;;;;;;;7.90;2.85;;;;;;;9.13;91.83;103048.00;4943615;28;20050;-82
2021/12/16 09:51:55;;;;;;;13.23;3.05;;;;;;;9.19;91.60;103048.84;4965280;28;20041;-82
2021/12/16 09:54:28;;;;;;;5.10;2.60;;;;;;;9.23;91.35;103051.88;4955905;28;20108;-82
2021/12/16 09:56:56;;;;;;;4.57;2.40;;;;;;;9.27;91.09;103055.72;4942096;28;20122;-82
2021/12/16 09:59:25;;;;;;;8.65;2.78;;;;;;;9.32;90.66;103061.25;4950972;28;20046;-82
2021/12/16 10:01:57;;;;;;;4.43;3.17;;;;;;;9.36;90.75;103056.81;4941085;28;20051;-82
2021/12/16 10:04:31;;;;;;;3.70;3.22;;;;;;;9.40;90.32;103068.97;4960375;28;20074;-83
2021/12/16 10:07:03;;;;;;;4.68;2.33;;;;;;;9.44;90.22;103075.59;4948943;28;20094;-83
2021/12/16 10:09:31;;;;;;;5.05;2.28;;;;;;;9.48;89.99;103076.66;4974100;28;20126;-88
2021/12/16 10:12:06;;;;;;;4.75;2.45;;;;;;;9.51;89.79;103068.66;4959180;28;20225;-83
2021/12/16 10:14:57;;;;;;;4.30;2.63;;;;;;;9.53;89.64;103074.72;4942650;28;20887;-83
2021/12/16 10:17:29;;;;;;;6.25;2.33;;;;;;;9.58;89.12;103076.66;4935294;29;20073;-82
2021/12/16 10:20:02;;;;;;;6.82;2.92;;;;;;;9.63;89.05;103073.88;4957964;28;20091;-83
2021/12/16 10:22:39;;;;;;;3.55;3.00;;;;;;;9.67;89.39;103072.19;4931815;28;20135;-82
2021/12/16 10:25:33;;;;;;;7.22;2.63;;;;;;;9.73;88.87;103082.13;4933406;29;20039;-83
2021/12/16 10:28:11;;;;;;;4.47;2.47;;;;;;;9.76;89.01;103087.09;4939459;29;20039;-83
2021/12/16 10:31:01;;;;;;;5.85;2.65;;;;;;;9.80;88.46;103091.78;4943886;28;20571;-82
2021/12/16 10:33:34;;;;;;;3.28;2.33;;;;;;;9.86;88.31;103078.75;4966233;28;20129;-85
2021/12/16 10:36:04;;;;;;;3.50;2.20;;;;;;;9.92;87.88;103098.94;4954411;28;20150;-84
2021/12/16 10:38:36;;;;;;;6.13;2.33;;;;;;;9.92;87.48;103096.16;4943749;28;20045;-82
2021/12/16 10:41:04;;;;;;;13.77;4.30;;;;;;;9.95;87.60;103104.72;4948314;28;20039;-83
2021/12/16 10:43:33;;;;;;;3.70;2.05;;;;;;;9.97;87.60;103105.28;4940151;29;20235;-82
2021/12/16 10:46:14;;;;;;;5.75;2.42;;;;;;;10.01;86.89;103109.09;4917851;29;20054;-82
2021/12/16 10:49:06;;;;;;;5.93;2.13;;;;;;;10.04;87.08;103104.94;4963043;28;20047;-83
2021/12/16 10:51:35;;;;;;;3.27;2.47;;;;;;;10.06;86.81;103122.91;4941185;28;20117;-83
2021/12/16 10:54:10;;;;;;;6.72;2.40;;;;;;;10.09;86.56;103111.28;4954042;28;20292;-82
2021/12/16 10:56:39;;;;;;;6.22;2.25;;;;;;;10.13;86.38;103117.97;4928583;28;20424;-83
2021/12/16 10:59:27;;;;;;;4.00;2.20;;;;;;;10.16;85.20;103109.09;4948458;28;20034;-83
2021/12/16 11:02:00;;;;;;;6.75;3.28;;;;;;;10.23;85.47;103114.28;4937427;29;20050;-83
2021/12/16 11:04:38;;;;;;;4.07;2.50;;;;;;;10.28;84.87;103123.41;4938422;29;20046;-83
2021/12/16 11:07:12;;;;;;;4.13;3.20;;;;;;;10.33;85.12;103123.38;4940780;28;20069;-83
2021/12/16 11:10:03;;;;;;;3.22;2.28;;;;;;;10.37;84.68;103116.16;4934498;29;20126;-84
2021/12/16 11:12:56;;;;;;;6.93;1.85;;;;;;;10.43;83.83;103113.34;4938117;29;20421;-83
2021/12/16 11:15:29;;;;;;;4.18;1.88;;;;;;;10.45;83.96;103111.13;4931497;29;20095;-84
2021/12/16 11:17:59;;;;;;;3.40;1.92;;;;;;;10.47;83.35;103112.50;4924869;29;20062;-82
2021/12/16 11:20:49;;;;;;;4.97;2.78;;;;;;;10.48;83.59;103113.31;4922607;29;21347;-83
2021/12/16 11:23:18;;;;;;;7.75;3.00;;;;;;;10.46;83.23;103110.03;4938634;29;20044;-84
2021/12/16 11:25:53;;;;;;;9.60;2.80;;;;;;;10.45;82.92;103108.34;4939319;28;20035;-83
2021/12/16 11:28:24;;;;;;;1.88;1.50;;;;;;;10.45;82.93;103113.88;4939305;29;20058;-83
2021/12/16 11:31:01;;;;;;;2.95;1.90;;;;;;;10.46;82.55;103110.03;4930805;29;20515;-82
2021/12/16 11:33:42;;;;;;;3.17;1.55;;;;;;;10.48;82.11;103108.63;4936293;29;20106;-83
2021/12/16 11:36:16;;;;;;;4.13;2.22;;;;;;;10.48;82.16;103113.31;4950791;28;20130;-83
2021/12/16 11:38:54;;;;;;;4.35;2.13;;;;;;;10.49;81.30;103121.34;4938764;29;20047;-84
2021/12/16 11:41:29;;;;;;;3.67;1.52;;;;;;;10.50;81.04;103111.09;4936599;29;20364;-83
2021/12/16 11:44:02;;;;;;;5.28;2.10;;;;;;;10.47;80.04;103117.19;4942868;29;20039;-83
2021/12/16 11:46:50;;;;;;;1.42;1.30;;;;;;;10.42;79.43;103114.47;4937922;29;20058;-82
2021/12/16 11:49:25;;;;;;;3.28;2.00;;;;;;;10.36;80.03;103111.72;4926856;29;20057;-85
2021/12/16 11:52:06;;;;;;;2.58;1.80;;;;;;;10.35;80.09;103126.69;4936145;29;20054;-84
2021/12/16 11:54:49;;;;;;;3.35;1.85;;;;;;;10.34;79.36;103129.75;4944976;29;20479;-83
2021/12/16 11:57:36;;;;;;;21.95;3.42;;;;;;;10.31;79.55;103119.22;4927838;29;20035;-82
2021/12/16 12:00:09;;;;;;;2.83;1.77;;;;;;;10.29;79.47;103127.00;4938150;28;20058;-83
2021/12/16 12:02:39;;;;;;;4.57;1.48;;;;;;;10.25;79.40;103125.91;4937168;28;20051;-82
2021/12/16 12:05:31;;;;;;;3.30;1.73;;;;;;;10.17;79.07;103121.78;4939443;29;20051;-83
2021/12/16 12:08:23;;;;;;;3.30;2.00;;;;;;;10.12;79.03;103121.81;4938543;28;20118;-83
2021/12/16 12:11:00;;;;;;;3.97;2.05;;;;;;;10.10;79.43;103123.19;4944577;29;20090;-83
2021/12/16 12:13:33;;;;;;;2.40;1.67;;;;;;;10.06;79.37;103128.47;4935666;29;20054;-83
2021/12/16 12:16:14;;;;;;;2.67;1.83;;;;;;;10.03;78.67;103130.97;4910526;29;20048;-84
2021/12/16 12:19:10;;;;;;;5.07;1.90;;;;;;;10.04;79.18;103129.84;4951536;28;20035;-84
2021/12/16 12:21:54;;;;;;;3.90;1.67;;;;;;;10.06;79.19;103130.41;4938010;28;20035;-82
2021/12/16 12:24:25;;;;;;;2.80;2.00;;;;;;;10.10;79.58;103135.09;4922887;29;20031;-83
2021/12/16 12:27:20;;;;;;;2.20;1.50;;;;;;;10.14;79.27;103141.75;4940945;28;20061;-83
2021/12/16 12:29:56;;;;;;;6.05;1.80;;;;;;;10.18;79.30;103142.00;4922795;29;20710;-83
2021/12/16 12:32:29;;;;;;;7.70;2.00;;;;;;;10.22;79.39;103140.31;4911084;29;20043;-84
2021/12/16 12:35:12;;;;;;;2.80;1.38;;;;;;;10.25;78.62;103146.13;4937051;29;20491;-83
2021/12/16 12:37:44;;;;;;;4.18;2.17;;;;;;;10.28;78.99;103144.72;4943208;29;20048;-84
2021/12/16 12:40:13;;;;;;;4.00;1.80;;;;;;;10.31;79.04;103141.38;4937008;29;20039;-83
2021/12/16 12:42:42;;;;;;;3.60;1.55;;;;;;;10.32;78.93;103146.66;4931129;29;20032;-83
2021/12/16 12:45:11;;;;;;;6.40;1.60;;;;;;;10.34;78.31;103141.66;4931540;29;20071;-83
2021/12/16 12:47:42;;;;;;;2.20;1.98;;;;;;;10.36;78.54;103139.41;4932352;28;20472;-83
2021/12/16 12:50:25;;;;;;;6.43;2.05;;;;;;;10.38;78.19;103139.94;4943115;29;20031;-83
2021/12/16 12:52:54;;;;;;;4.78;1.83;;;;;;;10.40;78.44;103137.72;4935798;29;20057;-84
2021/12/16 12:55:33;;;;;;;3.30;1.80;;;;;;;10.43;78.32;103146.59;4923099;29;20046;-84
2021/12/16 12:58:13;;;;;;;4.95;1.63;;;;;;;10.44;78.12;103151.84;4931356;29;20035;-83
2021/12/16 13:00:46;;;;;;;5.13;2.13;;;;;;;10.46;78.25;103157.09;4940828;29;20040;-83
2021/12/16 13:03:31;;;;;;;7.80;1.63;;;;;;;10.49;78.12;103153.72;4926563;29;20055;-83
2021/12/16 13:06:05;;;;;;;2.47;1.77;;;;;;;10.48;77.43;103152.09;4930924;29;20046;-82
2021/12/16 13:08:39;;;;;;;2.70;2.00;;;;;;;10.49;77.72;103153.72;4925908;29;20119;-83
2021/12/16 13:11:16;;;;;;;5.10;1.88;;;;;;;10.48;77.48;103157.63;4925173;29;20035;-84
2021/12/16 13:14:22;;;;;;;3.63;2.75;;;;;;;10.48;77.08;103154.88;4939348;29;20075;-84
2021/12/16 13:28:03;;;;;;;4.32;1.80;;;;;;;10.49;77.00;103150.97;4943604;29;20071;-84
2021/12/16 13:30:40;;;;;;;2.15;1.85;;;;;;;10.49;77.21;103159.28;4937044;29;20896;-86
2021/12/16 13:33:20;;;;;;;2.22;1.45;;;;;;;10.48;77.16;103157.63;4940191;29;20070;-83
2021/12/16 13:35:52;;;;;;;2.78;2.10;;;;;;;10.47;77.24;103156.81;4923949;29;20052;-83
2021/12/16 13:38:21;;;;;;;3.65;1.80;;;;;;;10.48;77.15;103157.63;4943298;29;20134;-84
2021/12/16 13:40:50;;;;;;;5.55;2.55;;;;;;;10.49;77.26;103153.72;4914291;29;20567;-83
2021/12/16 13:43:28;;;;;;;4.55;2.00;;;;;;;10.49;76.86;103167.59;4925316;29;20043;-82
2021/12/16 13:49:11;;;;;;;7.00;2.17;;;;;;;10.47;76.78;103165.13;4940602;29;20044;-83
2021/12/16 14:04:03;;;;;;;6.13;1.70;;;;;;;10.41;76.38;103160.72;4937755;29;20046;-83
2021/12/16 14:06:52;;;;;;;4.60;3.17;;;;;;;10.39;76.67;103161.00;4951320;28;20171;-83
2021/12/16 14:09:27;;;;;;;3.20;2.10;;;;;;;10.39;76.52;103163.78;4959210;28;20042;-84
2021/12/16 14:13:14;;;;;;;7.30;5.13;;;;;;;10.38;76.74;103175.94;4960047;28;20105;-83
2021/12/16 14:15:08;;;;;;;7.15;2.42;;;;;;;10.37;76.70;103162.41;4955022;28;20062;-84
2021/12/16 14:17:49;;;;;;;4.35;2.08;;;;;;;10.35;76.57;103159.09;4964461;28;20047;-84
2021/12/16 14:24:04;;;;;;;4.22;2.50;;;;;;;10.31;76.44;103167.13;4952838;28;20039;-83
2021/12/16 14:26:42;;;;;;;7.97;2.63;;;;;;;10.31;76.71;103169.91;4947473;28;20048;-84
2021/12/16 14:42:37;;;;;;;6.60;3.13;;;;;;;10.21;76.80;103180.19;4942142;28;21144;-83
2021/12/16 14:45:28;;;;;;;5.47;2.38;;;;;;;10.19;76.53;103183.22;4949209;28;20074;-82
2021/12/16 14:50:57;;;;;;;2.92;2.00;;;;;;;10.15;76.66;103187.69;4954706;28;20055;-82
2021/12/16 14:53:38;;;;;;;4.70;2.30;;;;;;;10.13;76.67;103184.38;4949185;28;20104;-83
2021/12/16 14:56:13;;;;;;;4.47;2.15;;;;;;;10.13;76.71;103180.78;4964551;28;20079;-82
2021/12/16 14:58:42;;;;;;;3.67;2.00;;;;;;;10.11;77.01;103186.56;4951325;28;20364;-82
2021/12/16 15:01:20;;;;;;;5.05;2.78;;;;;;;10.10;76.91;103186.84;4946059;28;20047;-82
2021/12/16 15:03:50;;;;;;;5.38;2.15;;;;;;;10.08;77.03;103189.91;4947280;28;20075;-83
2021/12/16 15:06:32;;;;;;;4.10;2.20;;;;;;;10.05;77.04;103184.94;4960257;28;20479;-83